createdAt,value
2022-10-15T00:01:17.356Z,67.76
2022-10-15T00:03:45.510Z,67.67
2022-10-15T00:06:15.460Z,69.14
2022-10-15T00:08:42.600Z,69.55
2022-10-15T00:11:15.271Z,70.63
2022-10-15T00:13:42.331Z,70.29
2022-10-15T00:16:12.707Z,71.08
2022-10-15T00:18:40.382Z,70.66
2022-10-15T00:21:11.879Z,70.93
2022-10-15T00:23:38.675Z,71.27
2022-10-15T00:26:13.809Z,71.10
2022-10-15T00:28:40.490Z,72.00
2022-10-15T00:31:10.022Z,72.87
2022-10-15T00:33:37.385Z,72.53
2022-10-15T00:36:08.003Z,72.71
2022-10-15T00:38:35.428Z,72.87
2022-10-15T00:41:02.160Z,72.92
2022-10-15T00:43:43.831Z,73.55
2022-10-15T00:46:17.281Z,73.83
2022-10-15T00:48:45.824Z,73.21
2022-10-15T00:51:12.317Z,75.13
2022-10-15T00:53:39.006Z,73.98
2022-10-15T00:56:05.809Z,74.96
2022-10-15T00:58:32.874Z,74.75
2022-10-15T01:00:59.699Z,74.66
2022-10-15T01:03:26.619Z,75.03
2022-10-15T01:09:42.543Z,74.97
2022-10-15T01:12:28.182Z,75.25
2022-10-15T01:15:15.763Z,76.75
2022-10-15T01:17:47.928Z,77.86
2022-10-15T01:20:33.027Z,75.97
2022-10-15T01:23:05.347Z,76.07
2022-10-15T01:25:42.308Z,75.63
2022-10-15T01:28:42.480Z,75.79
2022-10-15T01:31:29.883Z,76.13
2022-10-15T01:34:22.513Z,75.58
2022-10-15T01:37:16.664Z,76.16
2022-10-15T01:39:52.909Z,75.89
2022-10-15T01:42:29.241Z,74.75
2022-10-15T01:45:00.407Z,75.52
2022-10-15T01:47:35.977Z,75.92
2022-10-15T01:50:05.103Z,76.44
2022-10-15T01:52:37.145Z,76.07
2022-10-15T01:55:07.103Z,76.78
2022-10-15T01:57:34.597Z,75.67
2022-10-15T02:00:04.352Z,76.35
2022-10-15T02:02:30.822Z,76.60
2022-10-15T02:04:57.252Z,76.34
2022-10-15T02:07:35.597Z,78.05
2022-10-15T02:10:20.639Z,77.33
2022-10-15T02:13:12.860Z,77.09
2022-10-15T02:15:48.867Z,76.01
2022-10-15T02:18:21.064Z,75.79
2022-10-15T02:20:58.906Z,76.36
2022-10-15T02:23:39.650Z,76.35
2022-10-15T02:26:10.555Z,76.39
2022-10-15T02:28:40.216Z,76.41
2022-10-15T02:31:10.305Z,76.35
2022-10-15T02:33:38.462Z,76.16
2022-10-15T02:36:06.094Z,75.67
2022-10-15T02:38:34.255Z,75.97
2022-10-15T02:41:01.205Z,75.16
2022-10-15T02:43:27.811Z,76.18
2022-10-15T02:45:54.253Z,75.90
2022-10-15T02:48:20.679Z,75.69
2022-10-15T02:50:47.110Z,75.36
2022-10-15T02:53:13.610Z,75.88
2022-10-15T02:55:40.038Z,75.73
2022-10-15T02:58:06.461Z,75.31
2022-10-15T03:00:32.961Z,75.54
2022-10-15T03:02:59.343Z,75.81
2022-10-15T03:05:25.868Z,75.92
2022-10-15T03:07:52.590Z,75.62
2022-10-15T03:10:18.994Z,76.08
2022-10-15T03:12:45.405Z,76.16
2022-10-15T03:15:12.446Z,76.51
2022-10-15T03:17:38.907Z,76.68
2022-10-15T03:20:05.783Z,76.85
2022-10-15T03:22:32.190Z,76.16
2022-10-15T03:24:58.697Z,76.63
2022-10-15T03:27:25.546Z,75.77
2022-10-15T03:29:52.335Z,75.89
2022-10-15T03:32:18.715Z,77.14
2022-10-15T03:34:45.249Z,76.54
2022-10-15T03:37:11.673Z,76.49
2022-10-15T03:39:38.185Z,76.62
2022-10-15T03:42:04.762Z,75.91
2022-10-15T03:44:31.352Z,75.82
2022-10-15T03:46:57.801Z,75.58
2022-10-15T03:49:24.248Z,75.94
2022-10-15T03:51:50.668Z,75.63
2022-10-15T03:54:17.222Z,75.40
2022-10-15T03:56:43.729Z,76.49
2022-10-15T03:59:10.246Z,75.82
2022-10-15T04:01:37.140Z,77.28
2022-10-15T04:04:03.721Z,77.00
2022-10-15T04:06:30.245Z,76.75
2022-10-15T04:08:56.699Z,77.01
2022-10-15T04:11:23.108Z,76.66
2022-10-15T04:13:50.240Z,75.82
2022-10-15T04:16:17.586Z,76.60
2022-10-15T04:18:44.085Z,76.76
2022-10-15T04:21:11.554Z,76.46
2022-10-15T04:23:38.091Z,77.15
2022-10-15T04:26:06.229Z,77.75
2022-10-15T04:28:33.462Z,76.33
2022-10-15T04:31:01.300Z,76.65
2022-10-15T04:33:28.534Z,76.78
2022-10-15T04:36:07.403Z,76.23
2022-10-15T04:38:34.588Z,76.07
2022-10-15T04:41:03.433Z,75.98
2022-10-15T04:43:30.201Z,75.90
2022-10-15T04:45:58.732Z,75.73
2022-10-15T04:48:27.446Z,75.62
2022-10-15T04:50:53.938Z,75.55
2022-10-15T04:53:20.775Z,75.39
2022-10-15T04:55:47.601Z,75.81
2022-10-15T04:58:14.088Z,75.45
2022-10-15T05:00:40.616Z,75.29
2022-10-15T05:03:07.174Z,75.05
2022-10-15T05:05:33.645Z,75.32
2022-10-15T05:08:03.986Z,75.82
2022-10-15T05:10:30.649Z,75.62
2022-10-15T05:12:57.103Z,75.55
2022-10-15T05:15:26.200Z,75.37
2022-10-15T05:17:52.878Z,75.14
2022-10-15T05:20:19.284Z,75.20
2022-10-15T05:22:45.872Z,75.29
2022-10-15T05:25:12.253Z,75.42
2022-10-15T05:27:38.702Z,75.38
2022-10-15T05:30:06.028Z,75.39
2022-10-15T05:32:32.473Z,75.33
2022-10-15T05:34:58.898Z,75.55
2022-10-15T05:37:25.739Z,75.45
2022-10-15T05:39:52.332Z,75.70
2022-10-15T05:42:18.727Z,76.00
2022-10-15T05:44:45.133Z,75.49
2022-10-15T05:47:12.408Z,75.31
2022-10-15T05:49:39.019Z,75.09
2022-10-15T05:52:05.551Z,74.81
2022-10-15T05:54:32.345Z,75.19
2022-10-15T05:56:58.770Z,75.06
2022-10-15T05:59:25.180Z,75.21
2022-10-15T06:01:51.741Z,74.84
2022-10-15T06:04:18.259Z,74.61
2022-10-15T06:06:44.690Z,74.38
2022-10-15T06:09:11.090Z,74.96
2022-10-15T06:11:37.531Z,75.13
2022-10-15T06:14:04.031Z,74.33
2022-10-15T06:16:30.569Z,74.44
2022-10-15T06:18:56.971Z,74.15
2022-10-15T06:21:23.459Z,74.72
2022-10-15T06:23:49.995Z,74.53
2022-10-15T06:26:16.613Z,74.35
2022-10-15T06:28:43.152Z,74.42
2022-10-15T06:31:09.639Z,74.25
2022-10-15T06:33:36.084Z,75.09
2022-10-15T06:36:05.054Z,74.76
2022-10-15T06:38:31.989Z,74.13
2022-10-15T06:40:58.555Z,73.87
2022-10-15T06:43:25.081Z,73.03
2022-10-15T06:45:51.851Z,73.52
2022-10-15T06:48:18.580Z,73.35
2022-10-15T06:50:45.200Z,73.70
2022-10-15T06:53:11.605Z,74.01
2022-10-15T06:55:39.530Z,74.67
2022-10-15T06:58:06.199Z,73.64
2022-10-15T07:00:32.939Z,73.59
2022-10-15T07:03:07.011Z,73.15
2022-10-15T07:05:34.420Z,73.61
2022-10-15T07:08:01.390Z,73.45
2022-10-15T07:10:28.889Z,73.45
2022-10-15T07:12:55.372Z,73.30
2022-10-15T07:15:22.160Z,72.49
2022-10-15T07:17:49.944Z,72.49
2022-10-15T07:20:20.256Z,72.10
2022-10-15T07:22:49.824Z,71.89
2022-10-15T07:25:16.383Z,70.59
2022-10-15T07:27:42.837Z,70.24
2022-10-15T07:30:10.024Z,70.04
2022-10-15T07:32:36.543Z,69.03
2022-10-15T07:35:03.957Z,67.78
2022-10-15T07:37:31.617Z,67.37
2022-10-15T07:39:58.031Z,65.01
2022-10-15T07:42:24.533Z,63.84
2022-10-15T07:44:50.958Z,64.18
2022-10-15T07:47:17.387Z,62.60
2022-10-15T07:49:43.866Z,60.35
2022-10-15T07:52:10.384Z,61.27
2022-10-15T07:54:37.013Z,60.66
2022-10-15T07:57:03.837Z,59.91
2022-10-15T07:59:30.325Z,60.72
2022-10-15T08:01:56.722Z,59.61
2022-10-15T08:04:23.200Z,58.32
2022-10-15T08:06:49.914Z,57.12
2022-10-15T08:09:16.937Z,55.48
2022-10-15T08:11:43.665Z,55.49
2022-10-15T08:14:10.254Z,55.58
2022-10-15T08:16:36.678Z,56.57
2022-10-15T08:19:03.491Z,56.43
2022-10-15T08:21:29.869Z,55.46
2022-10-15T08:23:56.373Z,56.66
2022-10-15T08:26:23.073Z,57.20
2022-10-15T08:28:50.984Z,56.75
2022-10-15T08:31:19.180Z,54.98
2022-10-15T08:33:46.491Z,53.30
2022-10-15T08:36:13.036Z,51.18
2022-10-15T08:38:39.438Z,49.84
2022-10-15T08:41:19.812Z,48.53
2022-10-15T08:43:47.591Z,46.57
2022-10-15T08:46:20.406Z,46.33
2022-10-15T08:48:55.329Z,45.61
2022-10-15T08:51:25.270Z,46.49
2022-10-15T08:54:02.166Z,47.14
2022-10-15T08:56:37.077Z,46.91
2022-10-15T08:59:12.225Z,46.19
2022-10-15T09:01:49.743Z,47.80
2022-10-15T09:04:20.726Z,48.72
2022-10-15T09:06:53.145Z,49.28
2022-10-15T09:09:48.893Z,49.30
2022-10-15T09:12:47.442Z,49.48
2022-10-15T09:15:17.239Z,49.92
2022-10-15T09:17:46.547Z,50.22
2022-10-15T09:20:18.534Z,51.64
2022-10-15T09:25:18.667Z,51.60
2022-10-15T09:27:47.896Z,51.45
2022-10-15T09:30:51.010Z,51.21
2022-10-15T09:33:36.365Z,51.05
2022-10-15T09:36:09.063Z,50.56
2022-10-15T09:38:54.395Z,49.86
2022-10-15T09:41:39.505Z,48.28
2022-10-15T09:44:13.581Z,46.60
2022-10-15T09:46:47.593Z,47.61
2022-10-15T09:49:30.290Z,48.34
2022-10-15T09:52:14.482Z,49.44
2022-10-15T09:55:06.033Z,49.71
2022-10-15T09:57:35.249Z,50.33
2022-10-15T10:00:05.339Z,52.10
2022-10-15T10:02:31.898Z,51.95
2022-10-15T10:05:20.239Z,51.99
2022-10-15T10:07:46.730Z,52.63
2022-10-15T10:10:25.493Z,53.00
2022-10-15T10:12:52.404Z,53.12
2022-10-15T10:15:21.558Z,54.24
2022-10-15T10:17:55.606Z,54.32
2022-10-15T10:20:30.952Z,53.32
2022-10-15T10:23:02.891Z,53.84
2022-10-15T10:25:29.260Z,52.82
2022-10-15T10:27:59.058Z,51.22
2022-10-15T10:30:25.708Z,50.74
2022-10-15T10:32:58.387Z,50.32
2022-10-15T10:35:30.643Z,50.53
2022-10-15T10:37:57.181Z,50.88
2022-10-15T10:40:27.026Z,50.99
2022-10-15T10:43:16.845Z,51.97
2022-10-15T10:46:14.491Z,51.96
2022-10-15T10:48:44.741Z,51.80
2022-10-15T10:51:19.027Z,52.65
2022-10-15T10:53:56.906Z,52.23
2022-10-15T10:56:28.073Z,53.06
2022-10-15T10:59:02.364Z,53.21
2022-10-15T11:01:29.916Z,52.76
2022-10-15T11:03:56.488Z,53.71
2022-10-15T11:06:35.083Z,54.08
2022-10-15T11:09:04.358Z,54.29
2022-10-15T11:11:38.513Z,53.96
2022-10-15T11:14:39.056Z,54.99
2022-10-15T11:17:23.365Z,55.04
2022-10-15T11:20:13.103Z,55.05
2022-10-15T11:22:50.294Z,54.73
2022-10-15T11:25:28.883Z,53.33
2022-10-15T11:27:55.232Z,51.88
2022-10-15T11:30:41.516Z,49.82
2022-10-15T11:33:26.086Z,47.10
2022-10-15T11:36:08.413Z,45.75
2022-10-15T11:38:46.594Z,44.44
2022-10-15T11:41:37.766Z,45.95
2022-10-15T11:44:37.341Z,46.21
2022-10-15T11:47:47.969Z,41.49
2022-10-15T11:50:28.457Z,38.78
2022-10-15T11:53:21.911Z,41.28
2022-10-15T11:55:59.594Z,43.06
2022-10-15T11:58:35.086Z,45.82
2022-10-15T12:01:09.302Z,47.47
2022-10-15T12:03:45.775Z,48.41
2022-10-15T12:06:17.139Z,49.85
2022-10-15T12:08:44.563Z,50.05
2022-10-15T12:11:17.525Z,51.23
2022-10-15T12:16:48.080Z,51.40
2022-10-15T12:19:24.393Z,52.61
2022-10-15T12:21:56.728Z,52.83
2022-10-15T12:24:38.425Z,52.84
2022-10-15T12:27:34.291Z,52.34
2022-10-15T12:30:03.653Z,53.69
2022-10-15T12:32:37.407Z,53.43
2022-10-15T12:35:18.130Z,50.54
2022-10-15T12:37:47.948Z,48.91
2022-10-15T12:40:28.158Z,47.92
2022-10-15T12:43:21.370Z,45.50
2022-10-15T12:46:00.128Z,48.10
2022-10-15T12:48:44.994Z,48.41
2022-10-15T12:51:23.751Z,49.30
2022-10-15T12:53:51.681Z,51.34
2022-10-15T12:56:18.064Z,51.71
2022-10-15T12:58:44.518Z,54.22
2022-10-15T13:01:13.854Z,54.43
2022-10-15T13:03:49.400Z,54.87
2022-10-15T13:06:21.852Z,55.39
2022-10-15T13:09:02.965Z,54.46
2022-10-15T13:11:38.232Z,54.75
2022-10-15T13:14:39.030Z,54.67
2022-10-15T13:17:15.272Z,55.50
2022-10-15T13:19:48.651Z,55.22
2022-10-15T13:22:27.738Z,56.75
2022-10-15T13:24:55.857Z,56.13
2022-10-15T13:27:29.905Z,56.32
2022-10-15T13:30:02.255Z,56.36
2022-10-15T13:32:32.290Z,56.63
2022-10-15T13:35:01.310Z,56.41
2022-10-15T13:37:33.145Z,55.94
2022-10-15T13:40:03.158Z,55.79
2022-10-15T13:42:33.569Z,56.42
2022-10-15T13:45:18.605Z,56.80
2022-10-15T13:47:51.208Z,56.91
2022-10-15T13:50:25.072Z,57.17
2022-10-15T13:52:59.322Z,57.16
2022-10-15T13:55:29.282Z,58.27
2022-10-15T13:58:18.926Z,57.97
2022-10-15T14:01:08.697Z,57.30
2022-10-15T14:03:37.470Z,57.19
2022-10-15T14:06:24.486Z,57.26
2022-10-15T14:08:54.174Z,57.27
2022-10-15T14:11:20.864Z,58.34
2022-10-15T14:13:52.865Z,58.84
2022-10-15T14:16:34.361Z,58.13
2022-10-15T14:19:11.945Z,58.12
2022-10-15T14:21:44.547Z,58.56
2022-10-15T14:24:20.652Z,58.78
2022-10-15T14:26:47.911Z,58.87
2022-10-15T14:29:25.886Z,58.49
2022-10-15T14:31:53.110Z,58.91
2022-10-15T14:34:34.704Z,59.36
2022-10-15T14:37:02.256Z,59.45
2022-10-15T14:39:35.060Z,59.52
2022-10-15T14:42:07.547Z,58.93
2022-10-15T14:44:45.003Z,59.72
2022-10-15T14:47:20.816Z,60.52
2022-10-15T14:49:48.033Z,59.96
2022-10-15T14:52:20.419Z,60.36
2022-10-15T14:54:57.670Z,59.64
2022-10-15T14:57:27.414Z,60.40
2022-10-15T14:59:55.918Z,60.84
2022-10-15T15:02:26.448Z,60.86
2022-10-15T15:05:12.468Z,60.69
2022-10-15T15:07:40.327Z,60.75
2022-10-15T15:10:08.812Z,59.76
2022-10-15T15:12:36.090Z,60.11
2022-10-15T15:15:02.669Z,61.05
2022-10-15T15:17:30.620Z,60.42
2022-10-15T15:19:57.867Z,60.73
2022-10-15T15:22:30.818Z,60.37
2022-10-15T15:24:59.760Z,59.95
2022-10-15T15:27:31.301Z,60.44
2022-10-15T15:29:58.165Z,60.59
2022-10-15T15:32:25.039Z,60.99
2022-10-15T15:34:52.937Z,61.57
2022-10-15T15:37:22.225Z,61.05
2022-10-15T15:39:49.424Z,60.72
2022-10-15T15:42:23.939Z,61.53
2022-10-15T15:44:50.888Z,61.13
2022-10-15T15:47:17.467Z,61.56
2022-10-15T15:49:43.895Z,61.75
2022-10-15T15:52:13.928Z,61.82
2022-10-15T15:54:41.218Z,62.88
2022-10-15T15:57:07.809Z,63.54
2022-10-15T15:59:34.425Z,62.92
2022-10-15T16:02:01.295Z,62.71
2022-10-15T16:04:27.860Z,63.05
2022-10-15T16:06:54.364Z,62.92
2022-10-15T16:09:22.911Z,63.39
2022-10-15T16:11:50.265Z,64.22
2022-10-15T16:14:16.818Z,64.01
2022-10-15T16:16:43.786Z,64.13
2022-10-15T16:19:10.181Z,64.22
2022-10-15T16:21:36.691Z,64.52
2022-10-15T16:24:03.172Z,64.52
2022-10-15T16:26:29.601Z,64.54
2022-10-15T16:28:56.153Z,64.55
2022-10-15T16:31:29.391Z,64.92
2022-10-15T16:33:57.243Z,64.74
2022-10-15T16:36:23.844Z,65.66
2022-10-15T16:38:50.307Z,66.20
2022-10-15T16:41:19.186Z,65.05
2022-10-15T16:43:47.141Z,65.48
2022-10-15T16:46:14.120Z,65.87
2022-10-15T16:48:40.552Z,66.25
2022-10-15T16:51:16.496Z,65.81
2022-10-15T16:53:45.975Z,65.37
2022-10-15T16:56:21.597Z,65.28
2022-10-15T16:58:48.452Z,65.19
2022-10-15T17:01:18.149Z,66.97
2022-10-15T17:03:45.499Z,67.41
2022-10-15T17:06:15.018Z,67.60
2022-10-15T17:08:45.521Z,68.14
2022-10-15T17:11:33.392Z,67.12
2022-10-15T17:14:03.768Z,66.60
2022-10-15T17:16:32.915Z,66.58
2022-10-15T17:18:59.997Z,66.88
2022-10-15T17:21:28.743Z,67.27
2022-10-15T17:23:57.520Z,67.12
2022-10-15T17:26:27.519Z,67.46
2022-10-15T17:28:54.653Z,67.92
2022-10-15T17:31:23.546Z,68.02
2022-10-15T17:33:58.048Z,67.82
2022-10-15T17:36:25.967Z,68.17
2022-10-15T17:38:55.024Z,68.61
2022-10-15T17:41:24.777Z,68.00
2022-10-15T17:43:52.239Z,67.86
2022-10-15T17:46:21.614Z,68.23
2022-10-15T17:48:48.225Z,67.80
2022-10-15T17:51:17.875Z,68.35
2022-10-15T17:53:45.139Z,67.87
2022-10-15T17:56:16.261Z,68.11
2022-10-15T17:58:43.049Z,67.97
2022-10-15T18:01:14.851Z,67.60
2022-10-15T18:03:42.903Z,67.66
2022-10-15T18:06:11.986Z,67.60
2022-10-15T18:08:38.635Z,67.90
2022-10-15T18:11:05.313Z,67.81
2022-10-15T18:13:32.258Z,67.10
2022-10-15T18:15:59.025Z,67.95
2022-10-15T18:18:26.322Z,67.39
2022-10-15T18:20:53.535Z,67.85
2022-10-15T18:23:20.399Z,67.77
2022-10-15T18:25:47.017Z,67.38
2022-10-15T18:28:13.964Z,67.33
2022-10-15T18:30:42.209Z,67.59
2022-10-15T18:33:11.211Z,68.43
2022-10-15T18:35:39.024Z,67.76
2022-10-15T18:38:05.477Z,68.45
2022-10-15T18:40:37.425Z,68.15
2022-10-15T18:43:07.308Z,69.07
2022-10-15T18:45:36.197Z,68.41
2022-10-15T18:48:02.992Z,68.75
2022-10-15T18:50:29.578Z,69.11
2022-10-15T18:52:56.053Z,68.29
2022-10-15T18:55:22.454Z,68.18
2022-10-15T18:57:49.321Z,68.49
2022-10-15T19:00:16.296Z,68.60
2022-10-15T19:02:42.771Z,68.70
2022-10-15T19:05:09.280Z,68.95
2022-10-15T19:07:35.874Z,69.23
2022-10-15T19:10:02.670Z,69.15
2022-10-15T19:12:29.103Z,68.26
2022-10-15T19:14:55.644Z,68.46
2022-10-15T19:17:22.122Z,68.91
2022-10-15T19:19:50.252Z,68.27
2022-10-15T19:22:18.069Z,68.36
2022-10-15T19:24:44.527Z,68.95
2022-10-15T19:27:11.484Z,68.57
2022-10-15T19:29:39.319Z,69.13
2022-10-15T19:32:05.972Z,68.75
2022-10-15T19:34:34.537Z,68.90
2022-10-15T19:37:01.397Z,69.20
2022-10-15T19:39:27.938Z,68.72
2022-10-15T19:41:54.426Z,69.02
2022-10-15T19:44:25.316Z,69.02
2022-10-15T19:46:52.453Z,68.52
2022-10-15T19:49:18.893Z,69.88
2022-10-15T19:51:48.219Z,69.99
2022-10-15T19:54:15.435Z,69.32
2022-10-15T19:56:41.908Z,69.11
2022-10-15T19:59:10.414Z,69.29
2022-10-15T20:01:37.165Z,68.57
2022-10-15T20:04:07.096Z,68.50
2022-10-15T20:06:35.795Z,68.85
2022-10-15T20:09:02.362Z,69.00
2022-10-15T20:11:29.096Z,68.52
2022-10-15T20:13:55.608Z,68.52
2022-10-15T20:16:23.321Z,69.21
2022-10-15T20:18:50.640Z,69.20
2022-10-15T20:21:17.236Z,69.59
2022-10-15T20:23:45.015Z,69.04
2022-10-15T20:26:13.156Z,69.62
2022-10-15T20:28:41.019Z,70.04
2022-10-15T20:31:10.009Z,69.57
2022-10-15T20:33:37.122Z,69.85
2022-10-15T20:36:08.597Z,70.16
2022-10-15T20:38:36.676Z,69.15
2022-10-15T20:41:12.233Z,69.40
2022-10-15T20:43:39.290Z,69.73
2022-10-15T20:46:25.578Z,70.34
2022-10-15T20:48:52.671Z,69.79
2022-10-15T20:51:23.357Z,69.65
2022-10-15T20:53:52.769Z,69.59
2022-10-15T20:56:19.261Z,69.58
2022-10-15T20:58:47.227Z,69.29
2022-10-15T21:01:13.916Z,69.01
2022-10-15T21:03:40.502Z,69.00
2022-10-15T21:06:06.929Z,68.84
2022-10-15T21:08:33.520Z,69.10
2022-10-15T21:11:05.439Z,69.04
2022-10-15T21:13:31.919Z,69.07
2022-10-15T21:16:00.146Z,68.84
2022-10-15T21:18:26.946Z,68.77
2022-10-15T21:21:14.365Z,68.98
2022-10-15T21:23:42.700Z,69.24
2022-10-15T21:26:15.443Z,68.70
2022-10-15T21:28:42.717Z,68.25
2022-10-15T21:31:11.760Z,69.00
2022-10-15T21:33:38.813Z,69.29
2022-10-15T21:36:22.469Z,68.67
2022-10-15T21:38:54.765Z,69.79
2022-10-15T21:41:22.054Z,69.82
2022-10-15T21:46:20.188Z,69.02
2022-10-15T21:48:47.532Z,69.43
2022-10-15T21:51:17.679Z,69.82
2022-10-15T21:53:44.675Z,68.89
2022-10-15T21:56:11.489Z,69.67
2022-10-15T21:58:39.535Z,69.14
2022-10-15T22:01:17.058Z,69.20
2022-10-15T22:03:45.840Z,69.66
2022-10-15T22:06:12.821Z,69.31
2022-10-15T22:08:39.292Z,69.36
2022-10-15T22:11:11.998Z,69.06
2022-10-15T22:13:39.065Z,69.17
2022-10-15T22:16:06.792Z,68.81
2022-10-15T22:18:33.514Z,69.07
2022-10-15T22:21:15.584Z,69.01
2022-10-15T22:23:54.409Z,69.43
2022-10-15T22:26:24.262Z,69.27
2022-10-15T22:28:58.283Z,69.12
2022-10-15T22:31:25.686Z,68.89
2022-10-15T22:33:52.560Z,69.18
2022-10-15T22:36:24.296Z,69.42
2022-10-15T22:39:02.533Z,69.17
2022-10-15T22:41:39.561Z,69.10
2022-10-15T22:44:14.687Z,69.77
2022-10-15T22:46:41.327Z,69.61
2022-10-15T22:49:09.998Z,70.37
2022-10-15T22:51:36.574Z,69.88
2022-10-15T22:54:03.565Z,69.40
2022-10-15T22:56:31.011Z,69.97
2022-10-15T22:58:58.224Z,69.78
2022-10-15T23:01:30.425Z,69.62
2022-10-15T23:04:01.492Z,70.10
2022-10-15T23:06:28.433Z,70.08
2022-10-15T23:08:56.359Z,69.93
2022-10-15T23:11:24.176Z,69.55
2022-10-15T23:14:00.478Z,69.70
2022-10-15T23:16:31.187Z,70.26
2022-10-15T23:19:02.816Z,70.26
2022-10-15T23:21:34.019Z,69.77
2022-10-15T23:24:01.360Z,70.19
2022-10-15T23:28:57.960Z,69.77
2022-10-15T23:31:28.024Z,70.25
2022-10-15T23:33:55.853Z,69.86
2022-10-15T23:36:23.796Z,69.77
2022-10-15T23:38:52.709Z,69.87
2022-10-15T23:41:19.474Z,70.54
2022-10-15T23:43:46.177Z,70.17
2022-10-15T23:46:13.484Z,69.81
2022-10-15T23:48:39.920Z,70.86
2022-10-15T23:51:24.589Z,70.37
2022-10-15T23:53:52.130Z,70.53
2022-10-15T23:56:19.265Z,70.60
2022-10-15T23:58:50.032Z,70.72
